Big Rapids, Michigan
Current Conditions -  °F | °C
As of 5:15 AM on Saturday 25 Oct 2014 (Local Time) from KRQB Reporting Station
Overcast Overcast  
Wind Chill: 51°   Ceiling: 1700
Heat Index: 51°   Visibility: 7mi
Dew Point: 51°   Wind: 7mph
Humidity: 100%   Direction: 250°WSW
Pressure: 29.81"   Gusts: NA
Location:  43.7°N, 85.48°W
Report Text: KRQB 250915Z AUTO 25006KT 7SM BKN017 OVC025 11/11 A2981 RMK AO2 T01080108
Loading
Personal Weather Stations






























Interactive Weather Map New forecast layout! Learn more

10-Day Weather Forecast

Advertisements
Track Severe Weather on mobile